sensor_id;sensor_type;location;lat;lon;timestamp;P1;durP1;ratioP1;P2;durP2;ratioP2
17369;SDS011;8802;52.402;4.920;2023-05-23T00:01:30;15.15;;;9.45;;
17369;SDS011;8802;52.402;4.920;2023-05-23T00:03:57;11.05;;;8.68;;
17369;SDS011;8802;52.402;4.920;2023-05-23T00:06:27;7.50;;;6.25;;
17369;SDS011;8802;52.402;4.920;2023-05-23T00:08:54;10.20;;;5.82;;
17369;SDS011;8802;52.402;4.920;2023-05-23T00:11:21;8.95;;;5.50;;
17369;SDS011;8802;52.402;4.920;2023-05-23T00:13:51;6.95;;;5.35;;
17369;SDS011;8802;52.402;4.920;2023-05-23T00:16:18;7.53;;;5.45;;
17369;SDS011;8802;52.402;4.920;2023-05-23T00:18:45;7.25;;;5.40;;
17369;SDS011;8802;52.402;4.920;2023-05-23T00:21:14;8.45;;;5.55;;
17369;SDS011;8802;52.402;4.920;2023-05-23T00:23:43;6.63;;;5.22;;
17369;SDS011;8802;52.402;4.920;2023-05-23T00:26:10;8.88;;;5.88;;
17369;SDS011;8802;52.402;4.920;2023-05-23T00:28:36;8.60;;;6.15;;
17369;SDS011;8802;52.402;4.920;2023-05-23T00:31:03;10.65;;;6.22;;
17369;SDS011;8802;52.402;4.920;2023-05-23T00:33:31;9.43;;;6.00;;
17369;SDS011;8802;52.402;4.920;2023-05-23T00:35:58;9.93;;;6.97;;
17369;SDS011;8802;52.402;4.920;2023-05-23T00:38:25;10.65;;;6.90;;
17369;SDS011;8802;52.402;4.920;2023-05-23T00:40:53;8.20;;;6.38;;
17369;SDS011;8802;52.402;4.920;2023-05-23T00:43:20;8.98;;;6.47;;
17369;SDS011;8802;52.402;4.920;2023-05-23T00:45:47;10.02;;;6.93;;
17369;SDS011;8802;52.402;4.920;2023-05-23T00:48:14;9.45;;;7.13;;
17369;SDS011;8802;52.402;4.920;2023-05-23T00:50:41;13.43;;;7.22;;
17369;SDS011;8802;52.402;4.920;2023-05-23T00:53:08;10.90;;;7.03;;
17369;SDS011;8802;52.402;4.920;2023-05-23T00:55:35;11.18;;;6.97;;
17369;SDS011;8802;52.402;4.920;2023-05-23T00:58:04;12.93;;;7.45;;
17369;SDS011;8802;52.402;4.920;2023-05-23T01:00:31;12.05;;;7.22;;
17369;SDS011;8802;52.402;4.920;2023-05-23T01:02:59;14.35;;;7.68;;
17369;SDS011;8802;52.402;4.920;2023-05-23T01:05:27;14.00;;;6.68;;
17369;SDS011;8802;52.402;4.920;2023-05-23T01:07:54;16.98;;;8.18;;
17369;SDS011;8802;52.402;4.920;2023-05-23T01:10:22;19.48;;;7.30;;
17369;SDS011;8802;52.402;4.920;2023-05-23T01:12:55;15.30;;;7.65;;
17369;SDS011;8802;52.402;4.920;2023-05-23T01:15:32;13.55;;;6.95;;
17369;SDS011;8802;52.402;4.920;2023-05-23T01:18:06;12.48;;;7.65;;
17369;SDS011;8802;52.402;4.920;2023-05-23T01:20:37;15.30;;;8.27;;
17369;SDS011;8802;52.402;4.920;2023-05-23T01:23:23;11.95;;;7.70;;
17369;SDS011;8802;52.402;4.920;2023-05-23T01:26:12;15.98;;;9.18;;
17369;SDS011;8802;52.402;4.920;2023-05-23T01:28:53;16.92;;;8.10;;
17369;SDS011;8802;52.402;4.920;2023-05-23T01:31:24;17.05;;;8.20;;
17369;SDS011;8802;52.402;4.920;2023-05-23T01:33:54;15.65;;;8.13;;
17369;SDS011;8802;52.402;4.920;2023-05-23T01:36:22;18.48;;;8.52;;
17369;SDS011;8802;52.402;4.920;2023-05-23T01:38:48;14.20;;;8.15;;
17369;SDS011;8802;52.402;4.920;2023-05-23T01:41:15;16.08;;;8.02;;
17369;SDS011;8802;52.402;4.920;2023-05-23T01:43:42;17.02;;;8.07;;
17369;SDS011;8802;52.402;4.920;2023-05-23T01:46:10;19.23;;;8.77;;
17369;SDS011;8802;52.402;4.920;2023-05-23T01:48:39;14.80;;;7.78;;
17369;SDS011;8802;52.402;4.920;2023-05-23T01:51:06;16.20;;;8.30;;
17369;SDS011;8802;52.402;4.920;2023-05-23T01:53:33;15.98;;;8.18;;
17369;SDS011;8802;52.402;4.920;2023-05-23T01:56:02;16.02;;;7.95;;
17369;SDS011;8802;52.402;4.920;2023-05-23T01:58:29;15.38;;;7.57;;
17369;SDS011;8802;52.402;4.920;2023-05-23T02:00:56;13.27;;;7.43;;
17369;SDS011;8802;52.402;4.920;2023-05-23T02:03:24;13.32;;;6.80;;
17369;SDS011;8802;52.402;4.920;2023-05-23T02:05:51;13.32;;;6.85;;
17369;SDS011;8802;52.402;4.920;2023-05-23T02:08:18;16.63;;;7.00;;
17369;SDS011;8802;52.402;4.920;2023-05-23T02:10:45;16.00;;;7.18;;
17369;SDS011;8802;52.402;4.920;2023-05-23T02:13:12;17.17;;;6.85;;
17369;SDS011;8802;52.402;4.920;2023-05-23T02:15:39;14.25;;;7.00;;
17369;SDS011;8802;52.402;4.920;2023-05-23T02:18:06;16.67;;;6.72;;
17369;SDS011;8802;52.402;4.920;2023-05-23T02:20:34;14.07;;;6.90;;
17369;SDS011;8802;52.402;4.920;2023-05-23T02:23:01;16.40;;;7.15;;
17369;SDS011;8802;52.402;4.920;2023-05-23T02:25:28;15.80;;;6.70;;
17369;SDS011;8802;52.402;4.920;2023-05-23T02:27:55;16.58;;;6.90;;
17369;SDS011;8802;52.402;4.920;2023-05-23T02:30:22;12.55;;;6.95;;
17369;SDS011;8802;52.402;4.920;2023-05-23T02:32:49;17.08;;;7.38;;
17369;SDS011;8802;52.402;4.920;2023-05-23T02:35:17;11.93;;;6.28;;
17369;SDS011;8802;52.402;4.920;2023-05-23T02:37:45;16.05;;;6.13;;
17369;SDS011;8802;52.402;4.920;2023-05-23T02:40:12;13.77;;;6.18;;
17369;SDS011;8802;52.402;4.920;2023-05-23T02:42:38;14.25;;;5.90;;
17369;SDS011;8802;52.402;4.920;2023-05-23T02:45:06;10.55;;;4.97;;
17369;SDS011;8802;52.402;4.920;2023-05-23T02:47:33;11.02;;;5.38;;
17369;SDS011;8802;52.402;4.920;2023-05-23T02:50:00;13.48;;;5.60;;
17369;SDS011;8802;52.402;4.920;2023-05-23T02:52:27;10.02;;;4.85;;
17369;SDS011;8802;52.402;4.920;2023-05-23T02:54:55;13.05;;;5.50;;
17369;SDS011;8802;52.402;4.920;2023-05-23T02:57:22;10.38;;;5.35;;
17369;SDS011;8802;52.402;4.920;2023-05-23T02:59:49;11.05;;;4.95;;
17369;SDS011;8802;52.402;4.920;2023-05-23T03:02:16;14.15;;;5.13;;
17369;SDS011;8802;52.402;4.920;2023-05-23T03:04:43;9.05;;;4.35;;
17369;SDS011;8802;52.402;4.920;2023-05-23T03:07:10;12.63;;;5.47;;
17369;SDS011;8802;52.402;4.920;2023-05-23T03:09:39;9.82;;;4.72;;
17369;SDS011;8802;52.402;4.920;2023-05-23T03:12:07;10.10;;;3.95;;
17369;SDS011;8802;52.402;4.920;2023-05-23T03:14:34;12.35;;;4.45;;
17369;SDS011;8802;52.402;4.920;2023-05-23T03:17:01;8.05;;;3.92;;
17369;SDS011;8802;52.402;4.920;2023-05-23T03:19:28;8.35;;;4.10;;
17369;SDS011;8802;52.402;4.920;2023-05-23T03:21:55;11.07;;;4.05;;
17369;SDS011;8802;52.402;4.920;2023-05-23T03:24:22;9.18;;;3.88;;
17369;SDS011;8802;52.402;4.920;2023-05-23T03:26:49;8.73;;;3.70;;
17369;SDS011;8802;52.402;4.920;2023-05-23T03:29:17;9.32;;;3.78;;
17369;SDS011;8802;52.402;4.920;2023-05-23T03:31:44;9.82;;;3.70;;
17369;SDS011;8802;52.402;4.920;2023-05-23T03:34:11;11.43;;;4.15;;
17369;SDS011;8802;52.402;4.920;2023-05-23T03:36:38;9.50;;;4.50;;
17369;SDS011;8802;52.402;4.920;2023-05-23T03:39:05;9.43;;;3.72;;
17369;SDS011;8802;52.402;4.920;2023-05-23T03:41:32;7.45;;;2.85;;
17369;SDS011;8802;52.402;4.920;2023-05-23T03:43:59;8.80;;;3.58;;
17369;SDS011;8802;52.402;4.920;2023-05-23T03:46:27;8.68;;;3.38;;
17369;SDS011;8802;52.402;4.920;2023-05-23T03:48:54;9.65;;;3.05;;
17369;SDS011;8802;52.402;4.920;2023-05-23T03:51:21;8.77;;;3.85;;
17369;SDS011;8802;52.402;4.920;2023-05-23T03:53:48;9.18;;;3.90;;
17369;SDS011;8802;52.402;4.920;2023-05-23T03:56:15;7.75;;;4.28;;
17369;SDS011;8802;52.402;4.920;2023-05-23T03:58:41;8.45;;;4.32;;
17369;SDS011;8802;52.402;4.920;2023-05-23T04:01:08;7.72;;;3.70;;
17369;SDS011;8802;52.402;4.920;2023-05-23T04:03:36;7.40;;;3.55;;
17369;SDS011;8802;52.402;4.920;2023-05-23T04:06:03;7.70;;;3.83;;
17369;SDS011;8802;52.402;4.920;2023-05-23T04:08:30;11.55;;;4.13;;
17369;SDS011;8802;52.402;4.920;2023-05-23T04:10:59;7.40;;;4.38;;
17369;SDS011;8802;52.402;4.920;2023-05-23T04:13:26;9.13;;;4.30;;
17369;SDS011;8802;52.402;4.920;2023-05-23T04:15:55;10.15;;;5.10;;
17369;SDS011;8802;52.402;4.920;2023-05-23T04:18:22;9.35;;;4.53;;
17369;SDS011;8802;52.402;4.920;2023-05-23T04:20:50;9.55;;;4.90;;
17369;SDS011;8802;52.402;4.920;2023-05-23T04:23:17;12.52;;;4.72;;
17369;SDS011;8802;52.402;4.920;2023-05-23T04:25:43;9.48;;;4.85;;
17369;SDS011;8802;52.402;4.920;2023-05-23T04:28:12;8.57;;;4.88;;
17369;SDS011;8802;52.402;4.920;2023-05-23T04:30:41;14.55;;;5.95;;
17369;SDS011;8802;52.402;4.920;2023-05-23T04:33:08;10.00;;;4.82;;
17369;SDS011;8802;52.402;4.920;2023-05-23T04:35:35;11.05;;;4.75;;
17369;SDS011;8802;52.402;4.920;2023-05-23T04:38:06;12.30;;;5.22;;
17369;SDS011;8802;52.402;4.920;2023-05-23T04:40:32;9.07;;;4.53;;
17369;SDS011;8802;52.402;4.920;2023-05-23T04:42:59;10.77;;;5.50;;
17369;SDS011;8802;52.402;4.920;2023-05-23T04:45:26;12.32;;;5.45;;
17369;SDS011;8802;52.402;4.920;2023-05-23T04:47:53;14.95;;;6.15;;
17369;SDS011;8802;52.402;4.920;2023-05-23T04:50:20;9.45;;;4.85;;
17369;SDS011;8802;52.402;4.920;2023-05-23T04:52:47;8.52;;;4.82;;
17369;SDS011;8802;52.402;4.920;2023-05-23T04:55:16;9.70;;;5.22;;
17369;SDS011;8802;52.402;4.920;2023-05-23T04:57:44;13.55;;;5.88;;
17369;SDS011;8802;52.402;4.920;2023-05-23T05:00:11;10.65;;;5.43;;
17369;SDS011;8802;52.402;4.920;2023-05-23T05:02:39;9.27;;;5.68;;
17369;SDS011;8802;52.402;4.920;2023-05-23T05:05:07;13.45;;;6.15;;
17369;SDS011;8802;52.402;4.920;2023-05-23T05:07:35;14.82;;;5.70;;
17369;SDS011;8802;52.402;4.920;2023-05-23T05:10:02;12.00;;;5.80;;
17369;SDS011;8802;52.402;4.920;2023-05-23T05:12:30;11.45;;;6.15;;
17369;SDS011;8802;52.402;4.920;2023-05-23T05:14:57;10.32;;;6.03;;
17369;SDS011;8802;52.402;4.920;2023-05-23T05:17:24;11.40;;;5.68;;
17369;SDS011;8802;52.402;4.920;2023-05-23T05:19:51;13.07;;;6.15;;
17369;SDS011;8802;52.402;4.920;2023-05-23T05:22:17;11.18;;;6.00;;
17369;SDS011;8802;52.402;4.920;2023-05-23T05:24:44;11.50;;;5.93;;
17369;SDS011;8802;52.402;4.920;2023-05-23T05:27:11;9.90;;;5.30;;
17369;SDS011;8802;52.402;4.920;2023-05-23T05:29:39;10.43;;;5.50;;
17369;SDS011;8802;52.402;4.920;2023-05-23T05:32:06;11.52;;;6.07;;
17369;SDS011;8802;52.402;4.920;2023-05-23T05:34:33;12.13;;;5.57;;
17369;SDS011;8802;52.402;4.920;2023-05-23T05:37:01;10.60;;;5.80;;
17369;SDS011;8802;52.402;4.920;2023-05-23T05:39:28;9.95;;;5.55;;
17369;SDS011;8802;52.402;4.920;2023-05-23T05:41:55;9.23;;;5.00;;
17369;SDS011;8802;52.402;4.920;2023-05-23T05:44:23;10.98;;;4.93;;
17369;SDS011;8802;52.402;4.920;2023-05-23T05:46:52;7.50;;;4.10;;
17369;SDS011;8802;52.402;4.920;2023-05-23T05:49:19;7.22;;;3.70;;
17369;SDS011;8802;52.402;4.920;2023-05-23T05:51:46;5.10;;;3.47;;
17369;SDS011;8802;52.402;4.920;2023-05-23T05:54:13;7.30;;;3.05;;
17369;SDS011;8802;52.402;4.920;2023-05-23T05:56:40;5.63;;;3.22;;
17369;SDS011;8802;52.402;4.920;2023-05-23T05:59:07;7.55;;;3.20;;
17369;SDS011;8802;52.402;4.920;2023-05-23T06:01:33;8.15;;;2.97;;
17369;SDS011;8802;52.402;4.920;2023-05-23T06:04:03;8.75;;;2.72;;
17369;SDS011;8802;52.402;4.920;2023-05-23T06:06:30;6.45;;;2.72;;
17369;SDS011;8802;52.402;4.920;2023-05-23T06:08:57;8.95;;;2.53;;
17369;SDS011;8802;52.402;4.920;2023-05-23T06:11:24;7.05;;;3.35;;
17369;SDS011;8802;52.402;4.920;2023-05-23T06:13:51;7.40;;;2.95;;
17369;SDS011;8802;52.402;4.920;2023-05-23T06:16:18;12.18;;;3.40;;
17369;SDS011;8802;52.402;4.920;2023-05-23T06:18:45;9.43;;;3.33;;
17369;SDS011;8802;52.402;4.920;2023-05-23T06:21:13;9.15;;;2.90;;
17369;SDS011;8802;52.402;4.920;2023-05-23T06:23:40;12.02;;;3.22;;
17369;SDS011;8802;52.402;4.920;2023-05-23T06:26:07;10.82;;;2.72;;
17369;SDS011;8802;52.402;4.920;2023-05-23T06:28:34;10.55;;;2.80;;
17369;SDS011;8802;52.402;4.920;2023-05-23T06:31:02;9.00;;;3.03;;
17369;SDS011;8802;52.402;4.920;2023-05-23T06:33:29;12.20;;;3.22;;
17369;SDS011;8802;52.402;4.920;2023-05-23T06:35:57;9.50;;;3.15;;
17369;SDS011;8802;52.402;4.920;2023-05-23T06:38:26;10.65;;;2.60;;
17369;SDS011;8802;52.402;4.920;2023-05-23T06:40:54;12.90;;;3.25;;
17369;SDS011;8802;52.402;4.920;2023-05-23T06:43:21;8.43;;;3.15;;
17369;SDS011;8802;52.402;4.920;2023-05-23T06:45:48;10.35;;;3.30;;
17369;SDS011;8802;52.402;4.920;2023-05-23T06:48:15;9.82;;;2.75;;
17369;SDS011;8802;52.402;4.920;2023-05-23T06:50:42;13.77;;;3.40;;
17369;SDS011;8802;52.402;4.920;2023-05-23T06:53:09;13.48;;;3.00;;
17369;SDS011;8802;52.402;4.920;2023-05-23T06:55:37;12.80;;;3.17;;
17369;SDS011;8802;52.402;4.920;2023-05-23T06:58:04;8.88;;;2.88;;
17369;SDS011;8802;52.402;4.920;2023-05-23T07:00:30;10.30;;;2.50;;
17369;SDS011;8802;52.402;4.920;2023-05-23T07:02:57;18.77;;;2.92;;
17369;SDS011;8802;52.402;4.920;2023-05-23T07:05:25;8.00;;;3.05;;
17369;SDS011;8802;52.402;4.920;2023-05-23T07:07:53;12.77;;;3.47;;
17369;SDS011;8802;52.402;4.920;2023-05-23T07:10:20;10.25;;;3.15;;
17369;SDS011;8802;52.402;4.920;2023-05-23T07:12:48;10.43;;;2.88;;
17369;SDS011;8802;52.402;4.920;2023-05-23T07:15:15;10.63;;;3.08;;
17369;SDS011;8802;52.402;4.920;2023-05-23T07:17:42;10.93;;;2.75;;
17369;SDS011;8802;52.402;4.920;2023-05-23T07:20:09;9.70;;;2.85;;
17369;SDS011;8802;52.402;4.920;2023-05-23T07:22:36;15.77;;;2.60;;
17369;SDS011;8802;52.402;4.920;2023-05-23T07:25:04;8.02;;;2.67;;
17369;SDS011;8802;52.402;4.920;2023-05-23T07:27:31;13.30;;;3.28;;
17369;SDS011;8802;52.402;4.920;2023-05-23T07:30:00;8.82;;;2.63;;
17369;SDS011;8802;52.402;4.920;2023-05-23T07:32:27;9.23;;;2.63;;
17369;SDS011;8802;52.402;4.920;2023-05-23T07:34:53;11.00;;;2.90;;
17369;SDS011;8802;52.402;4.920;2023-05-23T07:37:20;11.15;;;2.90;;
17369;SDS011;8802;52.402;4.920;2023-05-23T07:39:47;11.45;;;2.97;;
17369;SDS011;8802;52.402;4.920;2023-05-23T07:42:14;9.32;;;2.63;;
17369;SDS011;8802;52.402;4.920;2023-05-23T07:44:41;11.98;;;2.90;;
17369;SDS011;8802;52.402;4.920;2023-05-23T07:47:09;11.73;;;2.88;;
17369;SDS011;8802;52.402;4.920;2023-05-23T07:49:36;12.85;;;2.80;;
17369;SDS011;8802;52.402;4.920;2023-05-23T07:52:03;15.82;;;3.30;;
17369;SDS011;8802;52.402;4.920;2023-05-23T07:54:31;12.52;;;2.97;;
17369;SDS011;8802;52.402;4.920;2023-05-23T07:56:57;8.82;;;2.97;;
17369;SDS011;8802;52.402;4.920;2023-05-23T07:59:24;9.10;;;2.90;;
17369;SDS011;8802;52.402;4.920;2023-05-23T08:01:51;10.98;;;3.00;;
17369;SDS011;8802;52.402;4.920;2023-05-23T08:04:19;8.75;;;2.65;;
17369;SDS011;8802;52.402;4.920;2023-05-23T08:06:46;10.98;;;2.95;;
17369;SDS011;8802;52.402;4.920;2023-05-23T08:09:13;13.20;;;2.85;;
17369;SDS011;8802;52.402;4.920;2023-05-23T08:11:40;12.05;;;2.78;;
17369;SDS011;8802;52.402;4.920;2023-05-23T08:14:07;14.55;;;3.40;;
17369;SDS011;8802;52.402;4.920;2023-05-23T08:16:34;9.88;;;2.55;;
17369;SDS011;8802;52.402;4.920;2023-05-23T08:19:01;8.68;;;2.83;;
17369;SDS011;8802;52.402;4.920;2023-05-23T08:21:29;10.40;;;2.78;;
17369;SDS011;8802;52.402;4.920;2023-05-23T08:23:57;10.85;;;3.28;;
17369;SDS011;8802;52.402;4.920;2023-05-23T08:26:24;10.23;;;2.60;;
17369;SDS011;8802;52.402;4.920;2023-05-23T08:28:51;8.85;;;2.75;;
17369;SDS011;8802;52.402;4.920;2023-05-23T08:31:18;10.43;;;2.80;;
17369;SDS011;8802;52.402;4.920;2023-05-23T08:33:45;10.25;;;3.00;;
17369;SDS011;8802;52.402;4.920;2023-05-23T08:36:12;8.77;;;3.28;;
17369;SDS011;8802;52.402;4.920;2023-05-23T08:38:41;10.75;;;2.97;;
17369;SDS011;8802;52.402;4.920;2023-05-23T08:41:08;12.25;;;2.85;;
17369;SDS011;8802;52.402;4.920;2023-05-23T08:43:42;12.35;;;3.30;;
17369;SDS011;8802;52.402;4.920;2023-05-23T08:46:09;11.18;;;2.70;;
17369;SDS011;8802;52.402;4.920;2023-05-23T08:48:37;9.05;;;2.72;;
17369;SDS011;8802;52.402;4.920;2023-05-23T08:51:04;7.50;;;2.53;;
17369;SDS011;8802;52.402;4.920;2023-05-23T08:53:32;8.88;;;2.85;;
17369;SDS011;8802;52.402;4.920;2023-05-23T08:56:04;10.93;;;2.67;;
17369;SDS011;8802;52.402;4.920;2023-05-23T08:58:31;14.98;;;3.17;;
17369;SDS011;8802;52.402;4.920;2023-05-23T09:01:00;10.15;;;3.00;;
17369;SDS011;8802;52.402;4.920;2023-05-23T09:03:27;9.50;;;2.90;;
17369;SDS011;8802;52.402;4.920;2023-05-23T09:05:54;11.02;;;3.08;;
17369;SDS011;8802;52.402;4.920;2023-05-23T09:08:22;14.07;;;3.20;;
17369;SDS011;8802;52.402;4.920;2023-05-23T09:10:50;11.23;;;3.65;;
17369;SDS011;8802;52.402;4.920;2023-05-23T09:13:18;8.52;;;3.00;;
17369;SDS011;8802;52.402;4.920;2023-05-23T09:16:01;9.95;;;3.00;;
17369;SDS011;8802;52.402;4.920;2023-05-23T09:18:32;10.48;;;3.03;;
17369;SDS011;8802;52.402;4.920;2023-05-23T09:21:01;11.05;;;2.63;;
17369;SDS011;8802;52.402;4.920;2023-05-23T09:23:28;10.07;;;2.75;;
17369;SDS011;8802;52.402;4.920;2023-05-23T09:25:59;8.93;;;2.80;;
17369;SDS011;8802;52.402;4.920;2023-05-23T09:28:29;10.35;;;2.70;;
17369;SDS011;8802;52.402;4.920;2023-05-23T09:30:57;8.60;;;2.65;;
17369;SDS011;8802;52.402;4.920;2023-05-23T09:33:28;10.82;;;2.97;;
17369;SDS011;8802;52.402;4.920;2023-05-23T09:35:58;11.38;;;2.80;;
17369;SDS011;8802;52.402;4.920;2023-05-23T09:38:26;10.57;;;2.72;;
17369;SDS011;8802;52.402;4.920;2023-05-23T09:40:54;9.43;;;2.88;;
17369;SDS011;8802;52.402;4.920;2023-05-23T09:43:22;9.65;;;2.70;;
17369;SDS011;8802;52.402;4.920;2023-05-23T09:45:51;10.00;;;2.67;;
17369;SDS011;8802;52.402;4.920;2023-05-23T09:48:18;8.98;;;2.53;;
17369;SDS011;8802;52.402;4.920;2023-05-23T09:50:45;12.38;;;3.10;;
17369;SDS011;8802;52.402;4.920;2023-05-23T09:53:15;6.47;;;2.58;;
17369;SDS011;8802;52.402;4.920;2023-05-23T09:55:45;9.65;;;2.67;;
17369;SDS011;8802;52.402;4.920;2023-05-23T09:58:13;7.60;;;2.65;;
17369;SDS011;8802;52.402;4.920;2023-05-23T10:00:40;9.48;;;2.53;;
17369;SDS011;8802;52.402;4.920;2023-05-23T10:03:10;6.53;;;2.30;;
17369;SDS011;8802;52.402;4.920;2023-05-23T10:05:40;8.32;;;2.70;;
17369;SDS011;8802;52.402;4.920;2023-05-23T10:08:10;12.52;;;3.05;;
17369;SDS011;8802;52.402;4.920;2023-05-23T10:10:55;11.50;;;2.65;;
17369;SDS011;8802;52.402;4.920;2023-05-23T10:14:01;8.80;;;2.53;;
17369;SDS011;8802;52.402;4.920;2023-05-23T10:16:33;8.85;;;3.00;;
17369;SDS011;8802;52.402;4.920;2023-05-23T10:19:09;10.57;;;2.78;;
17369;SDS011;8802;52.402;4.920;2023-05-23T10:21:43;10.18;;;2.50;;
17369;SDS011;8802;52.402;4.920;2023-05-23T10:24:15;10.55;;;2.50;;
17369;SDS011;8802;52.402;4.920;2023-05-23T10:26:42;10.50;;;2.22;;
17369;SDS011;8802;52.402;4.920;2023-05-23T10:29:11;7.50;;;2.60;;
17369;SDS011;8802;52.402;4.920;2023-05-23T10:31:37;11.93;;;2.67;;
17369;SDS011;8802;52.402;4.920;2023-05-23T10:34:07;11.20;;;2.88;;
17369;SDS011;8802;52.402;4.920;2023-05-23T10:36:42;8.30;;;2.40;;
17369;SDS011;8802;52.402;4.920;2023-05-23T10:39:18;8.20;;;2.58;;
17369;SDS011;8802;52.402;4.920;2023-05-23T10:41:54;8.45;;;2.30;;
17369;SDS011;8802;52.402;4.920;2023-05-23T10:44:26;8.55;;;2.60;;
17369;SDS011;8802;52.402;4.920;2023-05-23T10:46:55;7.38;;;1.95;;
17369;SDS011;8802;52.402;4.920;2023-05-23T10:49:37;8.50;;;3.28;;
17369;SDS011;8802;52.402;4.920;2023-05-23T10:52:05;6.80;;;2.42;;
17369;SDS011;8802;52.402;4.920;2023-05-23T10:54:33;7.30;;;2.47;;
17369;SDS011;8802;52.402;4.920;2023-05-23T10:57:04;7.53;;;2.38;;
17369;SDS011;8802;52.402;4.920;2023-05-23T10:59:31;11.50;;;2.80;;
17369;SDS011;8802;52.402;4.920;2023-05-23T11:01:59;9.20;;;2.60;;
17369;SDS011;8802;52.402;4.920;2023-05-23T11:04:27;10.80;;;2.80;;
17369;SDS011;8802;52.402;4.920;2023-05-23T11:06:56;7.95;;;2.90;;
17369;SDS011;8802;52.402;4.920;2023-05-23T11:09:24;10.77;;;2.83;;
17369;SDS011;8802;52.402;4.920;2023-05-23T11:11:51;9.05;;;2.97;;
17369;SDS011;8802;52.402;4.920;2023-05-23T11:14:31;10.57;;;2.53;;
17369;SDS011;8802;52.402;4.920;2023-05-23T11:17:14;9.77;;;2.55;;
17369;SDS011;8802;52.402;4.920;2023-05-23T11:19:54;11.07;;;2.03;;
17369;SDS011;8802;52.402;4.920;2023-05-23T11:22:27;6.90;;;2.50;;
17369;SDS011;8802;52.402;4.920;2023-05-23T11:24:55;11.75;;;2.38;;
17369;SDS011;8802;52.402;4.920;2023-05-23T11:27:26;8.38;;;2.75;;
17369;SDS011;8802;52.402;4.920;2023-05-23T11:29:55;11.18;;;2.60;;
17369;SDS011;8802;52.402;4.920;2023-05-23T11:32:23;7.15;;;2.45;;
17369;SDS011;8802;52.402;4.920;2023-05-23T11:34:53;7.38;;;2.30;;
17369;SDS011;8802;52.402;4.920;2023-05-23T11:37:20;7.00;;;2.10;;
17369;SDS011;8802;52.402;4.920;2023-05-23T11:39:49;6.38;;;2.45;;
17369;SDS011;8802;52.402;4.920;2023-05-23T11:42:16;9.57;;;2.38;;
17369;SDS011;8802;52.402;4.920;2023-05-23T11:44:43;8.75;;;2.35;;
17369;SDS011;8802;52.402;4.920;2023-05-23T11:47:10;5.68;;;1.90;;
17369;SDS011;8802;52.402;4.920;2023-05-23T11:49:37;8.48;;;2.35;;
17369;SDS011;8802;52.402;4.920;2023-05-23T11:52:05;11.75;;;3.42;;
17369;SDS011;8802;52.402;4.920;2023-05-23T11:54:33;9.48;;;2.70;;
17369;SDS011;8802;52.402;4.920;2023-05-23T11:57:01;11.13;;;3.03;;
17369;SDS011;8802;52.402;4.920;2023-05-23T11:59:29;9.77;;;2.25;;
17369;SDS011;8802;52.402;4.920;2023-05-23T12:01:55;9.38;;;2.30;;
17369;SDS011;8802;52.402;4.920;2023-05-23T12:04:23;6.80;;;1.90;;
17369;SDS011;8802;52.402;4.920;2023-05-23T12:06:51;9.73;;;2.25;;
17369;SDS011;8802;52.402;4.920;2023-05-23T12:09:18;6.70;;;2.20;;
17369;SDS011;8802;52.402;4.920;2023-05-23T12:11:47;7.90;;;2.20;;
17369;SDS011;8802;52.402;4.920;2023-05-23T12:14:16;8.32;;;2.55;;
17369;SDS011;8802;52.402;4.920;2023-05-23T12:16:43;7.80;;;2.60;;
17369;SDS011;8802;52.402;4.920;2023-05-23T12:19:11;8.25;;;2.70;;
17369;SDS011;8802;52.402;4.920;2023-05-23T12:21:40;8.35;;;2.53;;
17369;SDS011;8802;52.402;4.920;2023-05-23T12:24:12;8.00;;;2.33;;
17369;SDS011;8802;52.402;4.920;2023-05-23T12:26:48;7.07;;;1.90;;
17369;SDS011;8802;52.402;4.920;2023-05-23T12:29:18;5.72;;;2.20;;
17369;SDS011;8802;52.402;4.920;2023-05-23T12:31:49;7.85;;;2.20;;
17369;SDS011;8802;52.402;4.920;2023-05-23T12:34:18;6.78;;;2.00;;
17369;SDS011;8802;52.402;4.920;2023-05-23T12:36:46;7.10;;;2.00;;
17369;SDS011;8802;52.402;4.920;2023-05-23T12:39:14;10.13;;;2.10;;
17369;SDS011;8802;52.402;4.920;2023-05-23T12:41:41;12.70;;;2.70;;
17369;SDS011;8802;52.402;4.920;2023-05-23T12:44:09;7.35;;;2.47;;
17369;SDS011;8802;52.402;4.920;2023-05-23T12:46:39;6.13;;;2.00;;
17369;SDS011;8802;52.402;4.920;2023-05-23T12:49:06;5.68;;;2.00;;
17369;SDS011;8802;52.402;4.920;2023-05-23T12:51:34;6.80;;;2.33;;
17369;SDS011;8802;52.402;4.920;2023-05-23T12:54:01;13.82;;;2.80;;
17369;SDS011;8802;52.402;4.920;2023-05-23T12:56:28;5.03;;;2.05;;
17369;SDS011;8802;52.402;4.920;2023-05-23T12:58:55;7.63;;;2.05;;
17369;SDS011;8802;52.402;4.920;2023-05-23T13:01:22;11.73;;;2.95;;
17369;SDS011;8802;52.402;4.920;2023-05-23T13:03:51;5.82;;;1.67;;
17369;SDS011;8802;52.402;4.920;2023-05-23T13:06:18;5.93;;;1.70;;
17369;SDS011;8802;52.402;4.920;2023-05-23T13:08:45;6.22;;;2.00;;
17369;SDS011;8802;52.402;4.920;2023-05-23T13:11:14;5.85;;;1.95;;
17369;SDS011;8802;52.402;4.920;2023-05-23T13:13:42;7.57;;;2.22;;
17369;SDS011;8802;52.402;4.920;2023-05-23T13:16:09;6.65;;;1.75;;
17369;SDS011;8802;52.402;4.920;2023-05-23T13:18:36;7.75;;;2.00;;
17369;SDS011;8802;52.402;4.920;2023-05-23T13:21:04;5.80;;;1.98;;
17369;SDS011;8802;52.402;4.920;2023-05-23T13:23:31;7.18;;;2.17;;
17369;SDS011;8802;52.402;4.920;2023-05-23T13:26:00;6.60;;;2.10;;
17369;SDS011;8802;52.402;4.920;2023-05-23T13:28:27;9.40;;;2.15;;
17369;SDS011;8802;52.402;4.920;2023-05-23T13:30:54;5.72;;;2.00;;
17369;SDS011;8802;52.402;4.920;2023-05-23T13:33:21;6.47;;;1.90;;
17369;SDS011;8802;52.402;4.920;2023-05-23T13:35:49;6.70;;;2.17;;
17369;SDS011;8802;52.402;4.920;2023-05-23T13:38:18;4.68;;;1.88;;
17369;SDS011;8802;52.402;4.920;2023-05-23T13:40:46;4.85;;;1.45;;
17369;SDS011;8802;52.402;4.920;2023-05-23T13:43:15;4.30;;;1.88;;
17369;SDS011;8802;52.402;4.920;2023-05-23T13:45:42;7.40;;;2.08;;
17369;SDS011;8802;52.402;4.920;2023-05-23T13:48:11;6.25;;;1.75;;
17369;SDS011;8802;52.402;4.920;2023-05-23T13:50:38;7.03;;;2.17;;
17369;SDS011;8802;52.402;4.920;2023-05-23T13:53:05;6.63;;;1.60;;
17369;SDS011;8802;52.402;4.920;2023-05-23T13:55:39;5.07;;;1.60;;
17369;SDS011;8802;52.402;4.920;2023-05-23T13:58:07;5.40;;;1.85;;
17369;SDS011;8802;52.402;4.920;2023-05-23T14:00:34;4.97;;;1.48;;
17369;SDS011;8802;52.402;4.920;2023-05-23T14:03:01;7.15;;;1.67;;
17369;SDS011;8802;52.402;4.920;2023-05-23T14:05:29;6.82;;;1.92;;
17369;SDS011;8802;52.402;4.920;2023-05-23T14:07:56;7.05;;;1.92;;
17369;SDS011;8802;52.402;4.920;2023-05-23T14:10:23;8.95;;;1.73;;
17369;SDS011;8802;52.402;4.920;2023-05-23T14:12:51;6.55;;;1.50;;
17369;SDS011;8802;52.402;4.920;2023-05-23T14:15:18;4.97;;;1.83;;
17369;SDS011;8802;52.402;4.920;2023-05-23T14:17:46;7.93;;;2.40;;
17369;SDS011;8802;52.402;4.920;2023-05-23T14:20:12;6.68;;;2.08;;
17369;SDS011;8802;52.402;4.920;2023-05-23T14:22:40;7.03;;;1.95;;
17369;SDS011;8802;52.402;4.920;2023-05-23T14:25:07;8.10;;;2.53;;
17369;SDS011;8802;52.402;4.920;2023-05-23T14:27:35;6.85;;;1.85;;
17369;SDS011;8802;52.402;4.920;2023-05-23T14:30:03;9.18;;;2.10;;
17369;SDS011;8802;52.402;4.920;2023-05-23T14:32:31;3.88;;;1.60;;
17369;SDS011;8802;52.402;4.920;2023-05-23T14:35:02;9.27;;;2.40;;
17369;SDS011;8802;52.402;4.920;2023-05-23T14:37:31;10.43;;;2.22;;
17369;SDS011;8802;52.402;4.920;2023-05-23T14:39:59;8.68;;;2.20;;
17369;SDS011;8802;52.402;4.920;2023-05-23T14:42:26;5.57;;;1.80;;
17369;SDS011;8802;52.402;4.920;2023-05-23T14:44:53;7.88;;;1.75;;
17369;SDS011;8802;52.402;4.920;2023-05-23T14:47:21;6.63;;;2.53;;
17369;SDS011;8802;52.402;4.920;2023-05-23T14:49:48;9.40;;;2.38;;
17369;SDS011;8802;52.402;4.920;2023-05-23T14:52:15;8.10;;;2.17;;
17369;SDS011;8802;52.402;4.920;2023-05-23T14:54:45;7.85;;;1.95;;
17369;SDS011;8802;52.402;4.920;2023-05-23T14:57:12;5.80;;;1.77;;
17369;SDS011;8802;52.402;4.920;2023-05-23T14:59:39;12.00;;;2.40;;
17369;SDS011;8802;52.402;4.920;2023-05-23T15:02:06;7.40;;;1.88;;